• Join FlightAware (Why Join?)
  • Login
  • US Flag 
11:50PM EDT


 

Airport Tracker/Info


-or-


 

Live Flight TrackerFlight Track Log ✈ OPT712 ✈ 21-Jul-2013 ✈ KTRK - KSJC

Flight Track Log - Related Links

Times and Time Zones

All times are in EDT time to prevent confusion due to time zone crossing. See the OPT712 flight status page for this flight to view local times or setup timezone preferences in your user account.

Time Position Orientation Groundspeed Altitude Reporting Facility
EDT Latitude Longitude Course Direction KTS MPH feet Rate Location/Type
06:25PM 39.4936 -120.1956 334° Northwest 259 298 13,000  Level Oakland Center
06:26PM 39.4431 -120.2644 226° Southwest 298 343 15,000 1,320 Climbing Oakland Center
06:27PM 39.3503 -120.2439 170° South 343 395 15,800 360 Climbing Oakland Center
06:28PM 39.2486 -120.2122 166° South 369 425 15,800 -120 Level Oakland Center
06:29PM 38.7803 -120.1212 165° South  Level FlightAware Approximate
06:29PM 39.1478 -120.1836 168° South 371 427 15,600  Level Oakland Center
06:30PM 39.0525 -120.1553 167° South 356 410 16,000 180 Climbing Oakland Center
06:31PM 38.9503 -120.1428 175° South 366 421 16,000  Level Oakland Center
06:32PM 38.8469 -120.1572 186° South 373 429 16,000  Level Oakland Center
06:33PM 38.7439 -120.1725 187° South 373 429 16,000  Level Oakland Center
06:34PM 38.6239 -120.1900 186° South 363 418 16,000  Level Oakland Center
06:35PM 38.5228 -120.2058 187° South 364 419 16,000  Level Oakland Center
06:36PM 38.4214 -120.2222 187° South 368 423 16,000  Level Oakland Center
06:37PM 38.3186 -120.2369 186° South 368 423 16,000 -60 Level Oakland Center
06:38PM 38.2172 -120.2517 187° South 367 422 15,900 -60 Descending Oakland Center
06:39PM 38.1175 -120.2669 187° South 361 415 15,900  Level Oakland Center
06:40PM 38.0169 -120.2817 187° South 363 418 15,900  Level Oakland Center
06:41PM 37.9075 -120.2989 187° South 384 442 15,900  Level Oakland Center
06:42PM 37.7925 -120.3167 187° South 404 465 15,900  Level Oakland Center
06:43PM 37.6733 -120.3339 187° South 422 486 15,900  Level Oakland Center
06:44PM 37.5469 -120.3586 189° South 463 533 15,900  Level Oakland Center
06:45PM 37.4028 -120.3781 186° South 436 502 16,000  Climbing Oakland Center
06:46PM 37.3167 -120.3833 183° South 453 521 16,000  Level Northern Cal TRACON
06:47PM 37.2167 -120.4500 208° Southwest 509 586 16,000 -300 Level Northern Cal TRACON
06:48PM 37.1833 -120.5833 253° West 415 478 15,500 -1,320 Descending Northern Cal TRACON
06:49PM 37.1500 -120.7167 253° West 392 451 13,400 -2,040 Descending Northern Cal TRACON
06:50PM 37.1167 -120.8333 250° West 379 436 11,500 -1,800 Descending Northern Cal TRACON
06:51PM 37.1000 -120.9667 261° West 373 429 9,900 -780 Descending Northern Cal TRACON
06:52PM 37.0667 -121.0833 250° West 369 425 10,000  Climbing Northern Cal TRACON
06:53PM 37.0333 -121.2167 253° West 374 430 10,000  Level Northern Cal TRACON
06:54PM 37.0261 -121.2808 262° West 373 429 10,000 -600 Level Oakland Center
06:55PM 37.0369 -121.3894 277° West 318 366 9,100 -1,080 Descending Oakland Center
06:56PM 37.0719 -121.4597 302° West 300 345 7,900 -1,080 Descending Oakland Center
06:58PM 37.1495 -121.5844 314° West  Level Estimated
06:59PM 37.1975 -121.7225 314° West 269 310 4,700  Level Oakland Center
07:00PM 37.2336 -121.7978 301° West 259 298 3,200 -1,260 Descending Oakland Center
07:01PM 37.2822 -121.8450 322° Northwest 234 269 2,200 -1,080 Descending Oakland Center
07:02PM 37.3181 -121.8828 North 197 227 1,000 -1,080 Descending Oakland Center
07:03PM 37.3500 -121.9167 North  Level FlightAware Approximate
07:03PM 37.3539 -121.9217 319° Northwest 159 183 100  Level Oakland Center
07:07PM 37.3500 -121.9167 North  Level FlightAware Approximate
07:10PM 37.3627 -121.9291 North  Level Estimated